sensor_id;sensor_type;location;lat;lon;timestamp;P1;durP1;ratioP1;P2;durP2;ratioP2
71176;SDS011;58877;51.992;4.504;2023-08-20T00:02:01;2.63;;;2.03;;
71176;SDS011;58877;51.992;4.504;2023-08-20T00:04:28;2.61;;;2.00;;
71176;SDS011;58877;51.992;4.504;2023-08-20T00:06:56;2.81;;;2.17;;
71176;SDS011;58877;51.992;4.504;2023-08-20T00:09:21;2.77;;;2.14;;
71176;SDS011;58877;51.992;4.504;2023-08-20T00:11:48;2.95;;;2.28;;
71176;SDS011;58877;51.992;4.504;2023-08-20T00:14:17;2.64;;;2.11;;
71176;SDS011;58877;51.992;4.504;2023-08-20T00:16:43;2.76;;;2.24;;
71176;SDS011;58877;51.992;4.504;2023-08-20T00:19:09;2.64;;;2.13;;
71176;SDS011;58877;51.992;4.504;2023-08-20T00:21:41;2.52;;;2.01;;
71176;SDS011;58877;51.992;4.504;2023-08-20T00:24:08;2.11;;;1.70;;
71176;SDS011;58877;51.992;4.504;2023-08-20T00:26:35;2.12;;;1.68;;
71176;SDS011;58877;51.992;4.504;2023-08-20T00:29:01;2.28;;;1.81;;
71176;SDS011;58877;51.992;4.504;2023-08-20T00:31:26;2.02;;;1.62;;
71176;SDS011;58877;51.992;4.504;2023-08-20T00:33:52;2.20;;;1.74;;
71176;SDS011;58877;51.992;4.504;2023-08-20T00:36:18;2.18;;;1.71;;
71176;SDS011;58877;51.992;4.504;2023-08-20T00:38:44;2.14;;;1.64;;
71176;SDS011;58877;51.992;4.504;2023-08-20T00:41:09;2.53;;;1.88;;
71176;SDS011;58877;51.992;4.504;2023-08-20T00:43:35;2.58;;;1.93;;
71176;SDS011;58877;51.992;4.504;2023-08-20T00:46:00;2.57;;;1.91;;
71176;SDS011;58877;51.992;4.504;2023-08-20T00:48:29;3.45;;;2.46;;
71176;SDS011;58877;51.992;4.504;2023-08-20T00:50:55;2.99;;;2.10;;
71176;SDS011;58877;51.992;4.504;2023-08-20T00:53:21;3.09;;;2.19;;
71176;SDS011;58877;51.992;4.504;2023-08-20T00:55:47;2.82;;;2.02;;
71176;SDS011;58877;51.992;4.504;2023-08-20T00:58:12;2.82;;;2.03;;
71176;SDS011;58877;51.992;4.504;2023-08-20T01:00:39;2.83;;;2.02;;
71176;SDS011;58877;51.992;4.504;2023-08-20T01:03:05;2.50;;;1.81;;
71176;SDS011;58877;51.992;4.504;2023-08-20T01:05:32;2.72;;;1.95;;
71176;SDS011;58877;51.992;4.504;2023-08-20T01:08:19;2.95;;;2.10;;
71176;SDS011;58877;51.992;4.504;2023-08-20T01:10:57;3.29;;;2.32;;
71176;SDS011;58877;51.992;4.504;2023-08-20T01:13:26;3.30;;;2.33;;
71176;SDS011;58877;51.992;4.504;2023-08-20T01:15:52;3.09;;;2.20;;
71176;SDS011;58877;51.992;4.504;2023-08-20T01:18:17;3.44;;;2.46;;
71176;SDS011;58877;51.992;4.504;2023-08-20T01:20:45;2.73;;;2.00;;
71176;SDS011;58877;51.992;4.504;2023-08-20T01:23:40;2.70;;;1.97;;
71176;SDS011;58877;51.992;4.504;2023-08-20T01:29:36;2.98;;;2.23;;
71176;SDS011;58877;51.992;4.504;2023-08-20T01:32:03;2.36;;;1.75;;
71176;SDS011;58877;51.992;4.504;2023-08-20T01:34:30;2.47;;;1.82;;
71176;SDS011;58877;51.992;4.504;2023-08-20T01:36:56;2.90;;;2.14;;
71176;SDS011;58877;51.992;4.504;2023-08-20T01:39:21;3.04;;;2.27;;
71176;SDS011;58877;51.992;4.504;2023-08-20T01:41:47;2.58;;;1.92;;
71176;SDS011;58877;51.992;4.504;2023-08-20T01:44:13;2.41;;;1.77;;
71176;SDS011;58877;51.992;4.504;2023-08-20T01:46:39;2.85;;;2.03;;
71176;SDS011;58877;51.992;4.504;2023-08-20T01:49:04;3.34;;;2.40;;
71176;SDS011;58877;51.992;4.504;2023-08-20T01:51:30;3.14;;;2.28;;
71176;SDS011;58877;51.992;4.504;2023-08-20T01:53:55;2.65;;;1.92;;
71176;SDS011;58877;51.992;4.504;2023-08-20T01:56:21;2.52;;;1.82;;
71176;SDS011;58877;51.992;4.504;2023-08-20T01:58:46;2.49;;;1.84;;
71176;SDS011;58877;51.992;4.504;2023-08-20T02:01:12;2.73;;;2.00;;
71176;SDS011;58877;51.992;4.504;2023-08-20T02:03:37;2.43;;;1.79;;
71176;SDS011;58877;51.992;4.504;2023-08-20T02:06:03;2.35;;;1.74;;
71176;SDS011;58877;51.992;4.504;2023-08-20T02:08:29;3.61;;;2.62;;
71176;SDS011;58877;51.992;4.504;2023-08-20T02:11:01;3.01;;;2.16;;
71176;SDS011;58877;51.992;4.504;2023-08-20T02:13:28;2.66;;;1.92;;
71176;SDS011;58877;51.992;4.504;2023-08-20T02:16:12;3.00;;;2.15;;
71176;SDS011;58877;51.992;4.504;2023-08-20T02:18:37;3.04;;;2.25;;
71176;SDS011;58877;51.992;4.504;2023-08-20T02:21:03;2.71;;;2.04;;
71176;SDS011;58877;51.992;4.504;2023-08-20T02:23:29;2.24;;;1.75;;
71176;SDS011;58877;51.992;4.504;2023-08-20T02:25:54;2.09;;;1.65;;
71176;SDS011;58877;51.992;4.504;2023-08-20T02:28:21;2.40;;;1.91;;
71176;SDS011;58877;51.992;4.504;2023-08-20T02:30:47;2.23;;;1.76;;
71176;SDS011;58877;51.992;4.504;2023-08-20T02:33:12;2.24;;;1.78;;
71176;SDS011;58877;51.992;4.504;2023-08-20T02:35:38;2.32;;;1.82;;
71176;SDS011;58877;51.992;4.504;2023-08-20T02:38:05;2.54;;;1.99;;
71176;SDS011;58877;51.992;4.504;2023-08-20T02:40:31;2.22;;;1.75;;
71176;SDS011;58877;51.992;4.504;2023-08-20T02:42:57;2.46;;;1.90;;
71176;SDS011;58877;51.992;4.504;2023-08-20T02:45:23;2.78;;;2.12;;
71176;SDS011;58877;51.992;4.504;2023-08-20T02:47:49;2.80;;;2.16;;
71176;SDS011;58877;51.992;4.504;2023-08-20T02:50:15;2.53;;;1.95;;
71176;SDS011;58877;51.992;4.504;2023-08-20T02:52:44;2.60;;;1.99;;
71176;SDS011;58877;51.992;4.504;2023-08-20T02:55:10;2.65;;;2.04;;
71176;SDS011;58877;51.992;4.504;2023-08-20T02:57:36;2.56;;;1.97;;
71176;SDS011;58877;51.992;4.504;2023-08-20T03:00:01;2.44;;;1.87;;
71176;SDS011;58877;51.992;4.504;2023-08-20T03:02:30;2.92;;;2.24;;
71176;SDS011;58877;51.992;4.504;2023-08-20T03:04:55;2.61;;;2.02;;
71176;SDS011;58877;51.992;4.504;2023-08-20T03:07:21;2.56;;;1.99;;
71176;SDS011;58877;51.992;4.504;2023-08-20T03:09:50;2.37;;;1.85;;
71176;SDS011;58877;51.992;4.504;2023-08-20T03:12:16;2.20;;;1.75;;
71176;SDS011;58877;51.992;4.504;2023-08-20T03:14:41;2.57;;;2.01;;
71176;SDS011;58877;51.992;4.504;2023-08-20T03:17:07;2.54;;;2.04;;
71176;SDS011;58877;51.992;4.504;2023-08-20T03:19:33;2.47;;;1.99;;
71176;SDS011;58877;51.992;4.504;2023-08-20T03:22:00;1.95;;;1.55;;
71176;SDS011;58877;51.992;4.504;2023-08-20T03:24:26;2.66;;;2.11;;
71176;SDS011;58877;51.992;4.504;2023-08-20T03:26:51;2.94;;;2.27;;
71176;SDS011;58877;51.992;4.504;2023-08-20T03:29:17;2.96;;;2.29;;
71176;SDS011;58877;51.992;4.504;2023-08-20T03:31:43;2.93;;;2.29;;
71176;SDS011;58877;51.992;4.504;2023-08-20T03:34:08;3.30;;;2.57;;
71176;SDS011;58877;51.992;4.504;2023-08-20T03:36:35;2.79;;;2.17;;
71176;SDS011;58877;51.992;4.504;2023-08-20T03:39:02;2.46;;;1.92;;
71176;SDS011;58877;51.992;4.504;2023-08-20T03:41:29;2.39;;;1.87;;
71176;SDS011;58877;51.992;4.504;2023-08-20T03:43:54;2.85;;;2.20;;
71176;SDS011;58877;51.992;4.504;2023-08-20T03:46:20;2.39;;;1.88;;
71176;SDS011;58877;51.992;4.504;2023-08-20T03:48:45;2.51;;;2.01;;
71176;SDS011;58877;51.992;4.504;2023-08-20T03:51:11;2.57;;;2.10;;
71176;SDS011;58877;51.992;4.504;2023-08-20T03:53:38;2.97;;;2.38;;
71176;SDS011;58877;51.992;4.504;2023-08-20T03:56:04;2.80;;;2.18;;
71176;SDS011;58877;51.992;4.504;2023-08-20T03:58:29;3.18;;;2.47;;
71176;SDS011;58877;51.992;4.504;2023-08-20T04:00:55;3.19;;;2.45;;
71176;SDS011;58877;51.992;4.504;2023-08-20T04:03:21;2.85;;;2.17;;
71176;SDS011;58877;51.992;4.504;2023-08-20T04:05:46;3.46;;;2.59;;
71176;SDS011;58877;51.992;4.504;2023-08-20T04:08:13;3.14;;;2.38;;
71176;SDS011;58877;51.992;4.504;2023-08-20T04:10:43;3.32;;;2.55;;
71176;SDS011;58877;51.992;4.504;2023-08-20T04:13:12;2.85;;;2.21;;
71176;SDS011;58877;51.992;4.504;2023-08-20T04:15:39;3.17;;;2.44;;
71176;SDS011;58877;51.992;4.504;2023-08-20T04:18:06;2.61;;;1.99;;
71176;SDS011;58877;51.992;4.504;2023-08-20T04:20:32;2.55;;;1.98;;
71176;SDS011;58877;51.992;4.504;2023-08-20T04:22:57;2.64;;;2.08;;
71176;SDS011;58877;51.992;4.504;2023-08-20T04:25:23;2.23;;;1.76;;
71176;SDS011;58877;51.992;4.504;2023-08-20T04:27:49;2.72;;;2.13;;
71176;SDS011;58877;51.992;4.504;2023-08-20T04:30:14;3.37;;;2.60;;
71176;SDS011;58877;51.992;4.504;2023-08-20T04:32:40;2.53;;;1.98;;
71176;SDS011;58877;51.992;4.504;2023-08-20T04:35:06;2.24;;;1.78;;
71176;SDS011;58877;51.992;4.504;2023-08-20T04:37:31;2.50;;;2.03;;
71176;SDS011;58877;51.992;4.504;2023-08-20T04:39:57;2.80;;;2.30;;
71176;SDS011;58877;51.992;4.504;2023-08-20T04:42:23;2.58;;;2.13;;
71176;SDS011;58877;51.992;4.504;2023-08-20T04:44:49;2.22;;;1.86;;
71176;SDS011;58877;51.992;4.504;2023-08-20T04:47:15;1.96;;;1.64;;
71176;SDS011;58877;51.992;4.504;2023-08-20T04:49:44;2.23;;;1.86;;
71176;SDS011;58877;51.992;4.504;2023-08-20T04:52:09;2.36;;;2.00;;
71176;SDS011;58877;51.992;4.504;2023-08-20T04:54:35;2.51;;;2.13;;
71176;SDS011;58877;51.992;4.504;2023-08-20T04:57:00;2.75;;;2.31;;
71176;SDS011;58877;51.992;4.504;2023-08-20T04:59:27;2.13;;;1.80;;
71176;SDS011;58877;51.992;4.504;2023-08-20T05:01:54;2.11;;;1.79;;
71176;SDS011;58877;51.992;4.504;2023-08-20T05:04:19;2.55;;;2.15;;
71176;SDS011;58877;51.992;4.504;2023-08-20T05:06:45;2.34;;;1.94;;
71176;SDS011;58877;51.992;4.504;2023-08-20T05:09:11;2.67;;;2.22;;
71176;SDS011;58877;51.992;4.504;2023-08-20T05:11:37;2.75;;;2.29;;
71176;SDS011;58877;51.992;4.504;2023-08-20T05:14:03;2.71;;;2.28;;
71176;SDS011;58877;51.992;4.504;2023-08-20T05:16:28;2.48;;;2.07;;
71176;SDS011;58877;51.992;4.504;2023-08-20T05:18:54;2.69;;;2.16;;
71176;SDS011;58877;51.992;4.504;2023-08-20T05:21:20;3.03;;;2.39;;
71176;SDS011;58877;51.992;4.504;2023-08-20T05:23:45;3.00;;;2.34;;
71176;SDS011;58877;51.992;4.504;2023-08-20T05:26:11;2.83;;;2.21;;
71176;SDS011;58877;51.992;4.504;2023-08-20T05:28:37;2.91;;;2.26;;
71176;SDS011;58877;51.992;4.504;2023-08-20T05:31:02;2.63;;;2.11;;
71176;SDS011;58877;51.992;4.504;2023-08-20T05:33:28;2.70;;;2.24;;
71176;SDS011;58877;51.992;4.504;2023-08-20T05:35:53;2.89;;;2.40;;
71176;SDS011;58877;51.992;4.504;2023-08-20T05:38:19;2.61;;;2.15;;
71176;SDS011;58877;51.992;4.504;2023-08-20T05:40:47;2.79;;;2.31;;
71176;SDS011;58877;51.992;4.504;2023-08-20T05:43:13;2.90;;;2.37;;
71176;SDS011;58877;51.992;4.504;2023-08-20T05:45:38;2.72;;;2.20;;
71176;SDS011;58877;51.992;4.504;2023-08-20T05:48:04;3.27;;;2.61;;
71176;SDS011;58877;51.992;4.504;2023-08-20T05:50:30;3.03;;;2.47;;
71176;SDS011;58877;51.992;4.504;2023-08-20T05:52:56;3.02;;;2.48;;
71176;SDS011;58877;51.992;4.504;2023-08-20T05:55:21;2.56;;;2.11;;
71176;SDS011;58877;51.992;4.504;2023-08-20T05:57:47;3.02;;;2.45;;
71176;SDS011;58877;51.992;4.504;2023-08-20T06:00:12;2.98;;;2.44;;
71176;SDS011;58877;51.992;4.504;2023-08-20T06:02:38;2.93;;;2.39;;
71176;SDS011;58877;51.992;4.504;2023-08-20T06:05:04;3.05;;;2.41;;
71176;SDS011;58877;51.992;4.504;2023-08-20T06:07:30;3.50;;;2.76;;
71176;SDS011;58877;51.992;4.504;2023-08-20T06:09:56;2.64;;;2.13;;
71176;SDS011;58877;51.992;4.504;2023-08-20T06:12:22;2.74;;;2.24;;
71176;SDS011;58877;51.992;4.504;2023-08-20T06:14:48;3.42;;;2.79;;
71176;SDS011;58877;51.992;4.504;2023-08-20T06:17:14;3.05;;;2.47;;
71176;SDS011;58877;51.992;4.504;2023-08-20T06:19:40;3.25;;;2.54;;
71176;SDS011;58877;51.992;4.504;2023-08-20T06:22:05;3.29;;;2.56;;
71176;SDS011;58877;51.992;4.504;2023-08-20T06:24:31;3.78;;;2.93;;
71176;SDS011;58877;51.992;4.504;2023-08-20T06:26:57;2.90;;;2.28;;
71176;SDS011;58877;51.992;4.504;2023-08-20T06:29:22;2.58;;;2.05;;
71176;SDS011;58877;51.992;4.504;2023-08-20T06:31:49;3.04;;;2.43;;
71176;SDS011;58877;51.992;4.504;2023-08-20T06:34:16;2.60;;;2.12;;
71176;SDS011;58877;51.992;4.504;2023-08-20T06:36:42;3.18;;;2.54;;
71176;SDS011;58877;51.992;4.504;2023-08-20T06:39:08;3.23;;;2.52;;
71176;SDS011;58877;51.992;4.504;2023-08-20T06:41:36;3.04;;;2.34;;
71176;SDS011;58877;51.992;4.504;2023-08-20T06:44:02;2.95;;;2.22;;
71176;SDS011;58877;51.992;4.504;2023-08-20T06:46:28;3.53;;;2.58;;
71176;SDS011;58877;51.992;4.504;2023-08-20T06:48:53;3.86;;;2.75;;
71176;SDS011;58877;51.992;4.504;2023-08-20T06:51:20;3.82;;;2.74;;
71176;SDS011;58877;51.992;4.504;2023-08-20T06:53:47;3.51;;;2.52;;
71176;SDS011;58877;51.992;4.504;2023-08-20T06:56:15;3.63;;;2.62;;
71176;SDS011;58877;51.992;4.504;2023-08-20T06:58:46;4.28;;;3.14;;
71176;SDS011;58877;51.992;4.504;2023-08-20T07:01:15;3.84;;;2.82;;
71176;SDS011;58877;51.992;4.504;2023-08-20T07:03:47;3.59;;;2.65;;
71176;SDS011;58877;51.992;4.504;2023-08-20T07:06:45;4.39;;;3.20;;
71176;SDS011;58877;51.992;4.504;2023-08-20T07:09:13;3.58;;;2.63;;
71176;SDS011;58877;51.992;4.504;2023-08-20T07:11:40;3.36;;;2.56;;
71176;SDS011;58877;51.992;4.504;2023-08-20T07:14:05;3.89;;;2.96;;
71176;SDS011;58877;51.992;4.504;2023-08-20T07:16:41;4.15;;;3.06;;
71176;SDS011;58877;51.992;4.504;2023-08-20T07:19:11;3.46;;;2.61;;
71176;SDS011;58877;51.992;4.504;2023-08-20T07:21:37;3.68;;;2.87;;
71176;SDS011;58877;51.992;4.504;2023-08-20T07:24:29;3.15;;;2.46;;
71176;SDS011;58877;51.992;4.504;2023-08-20T07:27:01;3.52;;;2.78;;
71176;SDS011;58877;51.992;4.504;2023-08-20T07:29:38;2.76;;;2.18;;
71176;SDS011;58877;51.992;4.504;2023-08-20T07:32:10;3.19;;;2.47;;
71176;SDS011;58877;51.992;4.504;2023-08-20T07:38:01;2.86;;;2.25;;
71176;SDS011;58877;51.992;4.504;2023-08-20T07:40:27;3.14;;;2.37;;
71176;SDS011;58877;51.992;4.504;2023-08-20T07:42:56;3.56;;;2.59;;
71176;SDS011;58877;51.992;4.504;2023-08-20T07:45:22;4.31;;;3.05;;
71176;SDS011;58877;51.992;4.504;2023-08-20T07:47:56;4.14;;;2.93;;
71176;SDS011;58877;51.992;4.504;2023-08-20T07:50:24;3.55;;;2.55;;
71176;SDS011;58877;51.992;4.504;2023-08-20T07:52:50;3.67;;;2.65;;
71176;SDS011;58877;51.992;4.504;2023-08-20T07:55:27;3.58;;;2.63;;
71176;SDS011;58877;51.992;4.504;2023-08-20T07:57:59;3.83;;;2.73;;
71176;SDS011;58877;51.992;4.504;2023-08-20T08:00:43;3.45;;;2.46;;
71176;SDS011;58877;51.992;4.504;2023-08-20T08:03:16;4.01;;;2.85;;
71176;SDS011;58877;51.992;4.504;2023-08-20T08:05:51;4.98;;;3.55;;
71176;SDS011;58877;51.992;4.504;2023-08-20T08:08:24;3.92;;;2.81;;
71176;SDS011;58877;51.992;4.504;2023-08-20T08:10:55;3.22;;;2.32;;
71176;SDS011;58877;51.992;4.504;2023-08-20T08:13:22;3.43;;;2.51;;
71176;SDS011;58877;51.992;4.504;2023-08-20T08:15:48;3.30;;;2.43;;
71176;SDS011;58877;51.992;4.504;2023-08-20T08:18:14;3.96;;;2.85;;
71176;SDS011;58877;51.992;4.504;2023-08-20T08:20:40;3.25;;;2.32;;
71176;SDS011;58877;51.992;4.504;2023-08-20T08:23:08;3.43;;;2.46;;
71176;SDS011;58877;51.992;4.504;2023-08-20T08:25:42;3.78;;;2.64;;
71176;SDS011;58877;51.992;4.504;2023-08-20T08:28:11;4.17;;;2.91;;
71176;SDS011;58877;51.992;4.504;2023-08-20T08:30:39;3.47;;;2.46;;
71176;SDS011;58877;51.992;4.504;2023-08-20T08:33:08;2.86;;;2.10;;
71176;SDS011;58877;51.992;4.504;2023-08-20T08:35:39;3.33;;;2.48;;
71176;SDS011;58877;51.992;4.504;2023-08-20T08:38:09;3.37;;;2.46;;
71176;SDS011;58877;51.992;4.504;2023-08-20T08:44:39;2.99;;;2.25;;
71176;SDS011;58877;51.992;4.504;2023-08-20T08:47:13;2.59;;;1.99;;
71176;SDS011;58877;51.992;4.504;2023-08-20T08:49:54;2.44;;;1.87;;
71176;SDS011;58877;51.992;4.504;2023-08-20T08:52:36;2.37;;;1.84;;
71176;SDS011;58877;51.992;4.504;2023-08-20T08:55:07;3.16;;;2.41;;
71176;SDS011;58877;51.992;4.504;2023-08-20T08:57:45;3.20;;;2.37;;
71176;SDS011;58877;51.992;4.504;2023-08-20T09:04:30;3.00;;;2.19;;
71176;SDS011;58877;51.992;4.504;2023-08-20T09:08:13;2.42;;;1.74;;
71176;SDS011;58877;51.992;4.504;2023-08-20T09:11:14;2.73;;;1.98;;
71176;SDS011;58877;51.992;4.504;2023-08-20T09:13:48;2.79;;;2.01;;
71176;SDS011;58877;51.992;4.504;2023-08-20T09:16:25;2.75;;;1.99;;
71176;SDS011;58877;51.992;4.504;2023-08-20T09:19:05;2.92;;;2.14;;
71176;SDS011;58877;51.992;4.504;2023-08-20T09:21:40;2.66;;;1.97;;
71176;SDS011;58877;51.992;4.504;2023-08-20T09:27:30;3.08;;;2.34;;
71176;SDS011;58877;51.992;4.504;2023-08-20T09:34:32;2.54;;;1.95;;
71176;SDS011;58877;51.992;4.504;2023-08-20T09:37:21;2.92;;;2.25;;
71176;SDS011;58877;51.992;4.504;2023-08-20T09:46:20;2.88;;;2.14;;
71176;SDS011;58877;51.992;4.504;2023-08-20T09:49:21;2.10;;;1.53;;
71176;SDS011;58877;51.992;4.504;2023-08-20T09:55:35;2.70;;;1.93;;
71176;SDS011;58877;51.992;4.504;2023-08-20T09:58:16;2.78;;;2.00;;
71176;SDS011;58877;51.992;4.504;2023-08-20T10:00:52;2.62;;;1.88;;
71176;SDS011;58877;51.992;4.504;2023-08-20T10:03:27;2.62;;;1.86;;
71176;SDS011;58877;51.992;4.504;2023-08-20T10:09:27;2.26;;;1.64;;
71176;SDS011;58877;51.992;4.504;2023-08-20T10:12:15;2.00;;;1.48;;
71176;SDS011;58877;51.992;4.504;2023-08-20T10:14:55;2.89;;;2.12;;
71176;SDS011;58877;51.992;4.504;2023-08-20T10:23:52;2.78;;;1.91;;
71176;SDS011;58877;51.992;4.504;2023-08-20T10:27:06;2.82;;;1.92;;
71176;SDS011;58877;51.992;4.504;2023-08-20T10:29:48;2.73;;;1.85;;
71176;SDS011;58877;51.992;4.504;2023-08-20T10:32:51;2.83;;;1.92;;
71176;SDS011;58877;51.992;4.504;2023-08-20T10:38:47;2.07;;;1.43;;
71176;SDS011;58877;51.992;4.504;2023-08-20T10:42:07;2.00;;;1.43;;
71176;SDS011;58877;51.992;4.504;2023-08-20T10:48:27;2.74;;;1.92;;
71176;SDS011;58877;51.992;4.504;2023-08-20T10:51:15;2.56;;;1.77;;
71176;SDS011;58877;51.992;4.504;2023-08-20T11:01:49;1.76;;;1.20;;
71176;SDS011;58877;51.992;4.504;2023-08-20T11:04:20;2.50;;;1.68;;
71176;SDS011;58877;51.992;4.504;2023-08-20T11:06:49;2.24;;;1.50;;
71176;SDS011;58877;51.992;4.504;2023-08-20T11:09:21;1.45;;;0.98;;
71176;SDS011;58877;51.992;4.504;2023-08-20T11:12:16;2.64;;;1.80;;
71176;SDS011;58877;51.992;4.504;2023-08-20T11:14:41;2.19;;;1.48;;
71176;SDS011;58877;51.992;4.504;2023-08-20T11:17:07;2.25;;;1.51;;
71176;SDS011;58877;51.992;4.504;2023-08-20T11:19:37;2.40;;;1.62;;
71176;SDS011;58877;51.992;4.504;2023-08-20T11:22:03;2.29;;;1.55;;
71176;SDS011;58877;51.992;4.504;2023-08-20T11:24:29;2.06;;;1.40;;
71176;SDS011;58877;51.992;4.504;2023-08-20T11:26:55;2.32;;;1.59;;
71176;SDS011;58877;51.992;4.504;2023-08-20T11:29:21;2.12;;;1.45;;
71176;SDS011;58877;51.992;4.504;2023-08-20T11:31:47;2.25;;;1.53;;
71176;SDS011;58877;51.992;4.504;2023-08-20T11:34:14;2.19;;;1.48;;
71176;SDS011;58877;51.992;4.504;2023-08-20T11:36:41;1.91;;;1.30;;
71176;SDS011;58877;51.992;4.504;2023-08-20T11:39:07;2.17;;;1.47;;
71176;SDS011;58877;51.992;4.504;2023-08-20T11:41:36;2.06;;;1.38;;
71176;SDS011;58877;51.992;4.504;2023-08-20T11:44:03;1.77;;;1.17;;
71176;SDS011;58877;51.992;4.504;2023-08-20T11:46:30;1.89;;;1.26;;
71176;SDS011;58877;51.992;4.504;2023-08-20T11:49:08;1.95;;;1.30;;
71176;SDS011;58877;51.992;4.504;2023-08-20T11:51:38;1.77;;;1.19;;
71176;SDS011;58877;51.992;4.504;2023-08-20T11:54:09;1.79;;;1.23;;
71176;SDS011;58877;51.992;4.504;2023-08-20T11:56:46;1.19;;;0.82;;
71176;SDS011;58877;51.992;4.504;2023-08-20T11:59:14;2.07;;;1.42;;
71176;SDS011;58877;51.992;4.504;2023-08-20T12:01:41;2.30;;;1.56;;
71176;SDS011;58877;51.992;4.504;2023-08-20T12:04:07;1.55;;;1.06;;
71176;SDS011;58877;51.992;4.504;2023-08-20T12:06:35;1.74;;;1.18;;
71176;SDS011;58877;51.992;4.504;2023-08-20T12:09:18;1.84;;;1.24;;
71176;SDS011;58877;51.992;4.504;2023-08-20T12:11:51;2.36;;;1.62;;
71176;SDS011;58877;51.992;4.504;2023-08-20T12:14:28;2.07;;;1.42;;
71176;SDS011;58877;51.992;4.504;2023-08-20T12:16:57;2.46;;;1.67;;
71176;SDS011;58877;51.992;4.504;2023-08-20T12:19:23;2.02;;;1.38;;
71176;SDS011;58877;51.992;4.504;2023-08-20T12:21:50;1.58;;;1.07;;
71176;SDS011;58877;51.992;4.504;2023-08-20T12:24:16;1.82;;;1.25;;
71176;SDS011;58877;51.992;4.504;2023-08-20T12:26:44;1.88;;;1.29;;
71176;SDS011;58877;51.992;4.504;2023-08-20T12:29:10;2.17;;;1.46;;
71176;SDS011;58877;51.992;4.504;2023-08-20T12:31:40;1.80;;;1.21;;
71176;SDS011;58877;51.992;4.504;2023-08-20T12:34:07;1.81;;;1.22;;
71176;SDS011;58877;51.992;4.504;2023-08-20T12:36:33;1.99;;;1.35;;
71176;SDS011;58877;51.992;4.504;2023-08-20T12:38:59;1.94;;;1.35;;
71176;SDS011;58877;51.992;4.504;2023-08-20T12:41:24;1.79;;;1.24;;
71176;SDS011;58877;51.992;4.504;2023-08-20T12:43:50;1.90;;;1.32;;
71176;SDS011;58877;51.992;4.504;2023-08-20T12:46:16;1.85;;;1.29;;
71176;SDS011;58877;51.992;4.504;2023-08-20T12:48:42;1.75;;;1.22;;
71176;SDS011;58877;51.992;4.504;2023-08-20T12:51:08;1.60;;;1.13;;
71176;SDS011;58877;51.992;4.504;2023-08-20T12:53:37;1.87;;;1.32;;
71176;SDS011;58877;51.992;4.504;2023-08-20T12:56:03;2.26;;;1.59;;
71176;SDS011;58877;51.992;4.504;2023-08-20T12:58:29;1.74;;;1.22;;
71176;SDS011;58877;51.992;4.504;2023-08-20T13:00:54;2.16;;;1.52;;
71176;SDS011;58877;51.992;4.504;2023-08-20T13:03:20;2.30;;;1.61;;
71176;SDS011;58877;51.992;4.504;2023-08-20T13:05:46;1.67;;;1.16;;
71176;SDS011;58877;51.992;4.504;2023-08-20T13:08:13;1.85;;;1.28;;
71176;SDS011;58877;51.992;4.504;2023-08-20T13:10:42;2.32;;;1.61;;
71176;SDS011;58877;51.992;4.504;2023-08-20T13:13:15;2.06;;;1.43;;
71176;SDS011;58877;51.992;4.504;2023-08-20T13:15:46;1.94;;;1.35;;
71176;SDS011;58877;51.992;4.504;2023-08-20T13:18:13;2.21;;;1.53;;
71176;SDS011;58877;51.992;4.504;2023-08-20T13:20:39;1.74;;;1.22;;
71176;SDS011;58877;51.992;4.504;2023-08-20T13:23:05;2.06;;;1.45;;
71176;SDS011;58877;51.992;4.504;2023-08-20T13:25:30;1.83;;;1.32;;
71176;SDS011;58877;51.992;4.504;2023-08-20T13:27:56;2.16;;;1.55;;
71176;SDS011;58877;51.992;4.504;2023-08-20T13:30:22;1.92;;;1.38;;
71176;SDS011;58877;51.992;4.504;2023-08-20T13:32:47;2.27;;;1.60;;
71176;SDS011;58877;51.992;4.504;2023-08-20T13:35:14;2.15;;;1.51;;
71176;SDS011;58877;51.992;4.504;2023-08-20T13:37:41;2.28;;;1.65;;
71176;SDS011;58877;51.992;4.504;2023-08-20T13:40:07;1.65;;;1.20;;
71176;SDS011;58877;51.992;4.504;2023-08-20T13:42:35;1.53;;;1.12;;
71176;SDS011;58877;51.992;4.504;2023-08-20T13:45:01;1.86;;;1.36;;
71176;SDS011;58877;51.992;4.504;2023-08-20T13:47:31;2.41;;;1.73;;
71176;SDS011;58877;51.992;4.504;2023-08-20T13:49:58;1.96;;;1.42;;
71176;SDS011;58877;51.992;4.504;2023-08-20T13:52:24;2.59;;;1.87;;
71176;SDS011;58877;51.992;4.504;2023-08-20T13:54:49;2.28;;;1.60;;
71176;SDS011;58877;51.992;4.504;2023-08-20T13:57:15;1.55;;;1.10;;
71176;SDS011;58877;51.992;4.504;2023-08-20T13:59:41;1.89;;;1.36;;
71176;SDS011;58877;51.992;4.504;2023-08-20T14:02:06;2.21;;;1.58;;
71176;SDS011;58877;51.992;4.504;2023-08-20T14:04:32;2.13;;;1.49;;
71176;SDS011;58877;51.992;4.504;2023-08-20T14:06:58;2.50;;;1.73;;
71176;SDS011;58877;51.992;4.504;2023-08-20T14:09:23;2.58;;;1.78;;
71176;SDS011;58877;51.992;4.504;2023-08-20T14:11:53;2.84;;;1.95;;
71176;SDS011;58877;51.992;4.504;2023-08-20T14:14:22;2.37;;;1.64;;
71176;SDS011;58877;51.992;4.504;2023-08-20T14:16:48;2.35;;;1.64;;
71176;SDS011;58877;51.992;4.504;2023-08-20T14:19:13;2.67;;;1.87;;
71176;SDS011;58877;51.992;4.504;2023-08-20T14:21:39;1.90;;;1.31;;
71176;SDS011;58877;51.992;4.504;2023-08-20T14:24:05;2.27;;;1.58;;
71176;SDS011;58877;51.992;4.504;2023-08-20T14:26:37;2.35;;;1.65;;
71176;SDS011;58877;51.992;4.504;2023-08-20T14:29:05;2.01;;;1.41;;
71176;SDS011;58877;51.992;4.504;2023-08-20T14:31:31;2.12;;;1.50;;
71176;SDS011;58877;51.992;4.504;2023-08-20T14:33:58;2.53;;;1.79;;
71176;SDS011;58877;51.992;4.504;2023-08-20T14:36:27;2.68;;;1.85;;
71176;SDS011;58877;51.992;4.504;2023-08-20T14:38:53;2.50;;;1.69;;
71176;SDS011;58877;51.992;4.504;2023-08-20T14:41:24;2.05;;;1.37;;
71176;SDS011;58877;51.992;4.504;2023-08-20T14:43:49;2.74;;;1.84;;
71176;SDS011;58877;51.992;4.504;2023-08-20T14:46:15;2.28;;;1.54;;
71176;SDS011;58877;51.992;4.504;2023-08-20T14:48:41;8.91;;;6.35;;
71176;SDS011;58877;51.992;4.504;2023-08-20T14:51:26;2.00;;;1.51;;
71176;SDS011;58877;51.992;4.504;2023-08-20T14:53:51;2.03;;;1.55;;
71176;SDS011;58877;51.992;4.504;2023-08-20T14:56:17;2.83;;;2.17;;
71176;SDS011;58877;51.992;4.504;2023-08-20T14:58:42;2.34;;;1.86;;
71176;SDS011;58877;51.992;4.504;2023-08-20T15:01:09;1.91;;;1.55;;
71176;SDS011;58877;51.992;4.504;2023-08-20T15:03:37;1.91;;;1.55;;
71176;SDS011;58877;51.992;4.504;2023-08-20T15:06:02;2.84;;;2.35;;
71176;SDS011;58877;51.992;4.504;2023-08-20T15:08:33;1.58;;;1.34;;
71176;SDS011;58877;51.992;4.504;2023-08-20T15:11:00;1.40;;;1.17;;
71176;SDS011;58877;51.992;4.504;2023-08-20T15:13:28;1.48;;;1.21;;
71176;SDS011;58877;51.992;4.504;2023-08-20T15:15:58;1.34;;;1.09;;
71176;SDS011;58877;51.992;4.504;2023-08-20T15:18:27;1.32;;;1.09;;
71176;SDS011;58877;51.992;4.504;2023-08-20T15:20:54;2.18;;;1.77;;
71176;SDS011;58877;51.992;4.504;2023-08-20T15:23:21;1.47;;;1.17;;
71176;SDS011;58877;51.992;4.504;2023-08-20T15:25:52;1.26;;;1.00;;
71176;SDS011;58877;51.992;4.504;2023-08-20T15:28:19;1.44;;;1.14;;
71176;SDS011;58877;51.992;4.504;2023-08-20T15:30:53;1.75;;;1.37;;
71176;SDS011;58877;51.992;4.504;2023-08-20T15:33:19;1.84;;;1.42;;
71176;SDS011;58877;51.992;4.504;2023-08-20T15:35:47;1.46;;;1.13;;
71176;SDS011;58877;51.992;4.504;2023-08-20T15:38:14;1.75;;;1.39;;
71176;SDS011;58877;51.992;4.504;2023-08-20T15:40:40;2.19;;;1.77;;
71176;SDS011;58877;51.992;4.504;2023-08-20T15:43:09;2.19;;;1.84;;
71176;SDS011;58877;51.992;4.504;2023-08-20T15:45:38;1.58;;;1.38;;
71176;SDS011;58877;51.992;4.504;2023-08-20T15:48:04;1.54;;;1.31;;
71176;SDS011;58877;51.992;4.504;2023-08-20T15:50:29;1.59;;;1.31;;
71176;SDS011;58877;51.992;4.504;2023-08-20T15:52:55;1.64;;;1.33;;
71176;SDS011;58877;51.992;4.504;2023-08-20T15:55:20;1.96;;;1.55;;
71176;SDS011;58877;51.992;4.504;2023-08-20T15:57:47;1.96;;;1.52;;